GTI8002 OERK-VHHH
Flight info
| Callsign | GTI8002 |
|---|---|
| Flight time | N/A |
| Altitude | 29000 |
| Route | RAPMA Y214 KUTNA M440 MIDGU/N0500F370 M440 TULBU N881 RASKI L639 RITPO/N0497F390 L639 BPL A791 CEA B465 CTG A599 LINSO/K0917S1250 A599 POU R473 SIERA |
| Aircraft | B748/H-SDE3FGHIM1M2RWXY/LB1 |
Departure
| Time | 2026-05-08 05:09 |
|---|---|
| Airport | King Khalid International Airport (OERK) |
Arrival
| Time | N/A |
|---|---|
| Airport | Hong Kong International Airport (VHHH) |
| Time | Latitude | Longitude | Altitude | Speed | Heading |
|---|---|---|---|---|---|
| 2026-05-08 04:32 | 24.97621 | 46.69475 | 2050 ft | 0 kts | 243° |
| 2026-05-08 04:51 | 24.97626 | 46.69484 | 2055 ft | 4 kts | 242° |
| 2026-05-08 04:52 | 24.97639 | 46.69510 | 2050 ft | 4 kts | 239° |
| 2026-05-08 04:52 | 24.97651 | 46.69533 | 2053 ft | 4 kts | 238° |
| 2026-05-08 04:52 | 24.97663 | 46.69553 | 2053 ft | 4 kts | 208° |
| 2026-05-08 04:52 | 24.97679 | 46.69562 | 2050 ft | 4 kts | 167° |
| 2026-05-08 04:53 | 24.97702 | 46.69553 | 2050 ft | 4 kts | 148° |
| 2026-05-08 04:53 | 24.97719 | 46.69541 | 2050 ft | 0 kts | 150° |
| 2026-05-08 04:56 | 24.97713 | 46.69545 | 2050 ft | 3 kts | 150° |
| 2026-05-08 04:56 | 24.97675 | 46.69569 | 2050 ft | 10 kts | 150° |
| 2026-05-08 04:56 | 24.97603 | 46.69614 | 2049 ft | 13 kts | 150° |
| 2026-05-08 04:56 | 24.97518 | 46.69667 | 2051 ft | 15 kts | 150° |
| 2026-05-08 04:57 | 24.97426 | 46.69720 | 2049 ft | 16 kts | 159° |
| 2026-05-08 04:57 | 24.97324 | 46.69772 | 2054 ft | 16 kts | 150° |
| 2026-05-08 04:57 | 24.97228 | 46.69832 | 2053 ft | 15 kts | 150° |
| 2026-05-08 04:57 | 24.97136 | 46.69891 | 2054 ft | 15 kts | 150° |
| 2026-05-08 04:58 | 24.97043 | 46.69950 | 2053 ft | 15 kts | 150° |
| 2026-05-08 04:58 | 24.96955 | 46.70006 | 2051 ft | 14 kts | 150° |
| 2026-05-08 04:58 | 24.96872 | 46.70059 | 2053 ft | 13 kts | 150° |
| 2026-05-08 04:58 | 24.96789 | 46.70112 | 2054 ft | 14 kts | 150° |
| 2026-05-08 04:59 | 24.96701 | 46.70168 | 2056 ft | 15 kts | 150° |
| 2026-05-08 04:59 | 24.96610 | 46.70224 | 2053 ft | 16 kts | 150° |
| 2026-05-08 04:59 | 24.96514 | 46.70284 | 2056 ft | 16 kts | 150° |
| 2026-05-08 04:59 | 24.96415 | 46.70346 | 2056 ft | 17 kts | 150° |
| 2026-05-08 05:00 | 24.96312 | 46.70411 | 2053 ft | 17 kts | 150° |
| 2026-05-08 05:00 | 24.96206 | 46.70478 | 2053 ft | 18 kts | 150° |
| 2026-05-08 05:00 | 24.96097 | 46.70547 | 2053 ft | 18 kts | 150° |
| 2026-05-08 05:00 | 24.95986 | 46.70618 | 2056 ft | 18 kts | 150° |
| 2026-05-08 05:01 | 24.95899 | 46.70673 | 2050 ft | 11 kts | 150° |
| 2026-05-08 05:01 | 24.95852 | 46.70725 | 2053 ft | 6 kts | 104° |
| 2026-05-08 05:01 | 24.95866 | 46.70778 | 2050 ft | 8 kts | 55° |
| 2026-05-08 05:01 | 24.95893 | 46.70836 | 2049 ft | 3 kts | 85° |
| 2026-05-08 05:02 | 24.95887 | 46.70852 | 2049 ft | 4 kts | 118° |
| 2026-05-08 05:02 | 24.95860 | 46.70873 | 2049 ft | 8 kts | 150° |
| 2026-05-08 05:02 | 24.95788 | 46.70919 | 2053 ft | 15 kts | 150° |
| 2026-05-08 05:02 | 24.95686 | 46.70983 | 2051 ft | 19 kts | 150° |
| 2026-05-08 05:03 | 24.95571 | 46.71055 | 2049 ft | 19 kts | 150° |
| 2026-05-08 05:03 | 24.95462 | 46.71123 | 2051 ft | 17 kts | 150° |
| 2026-05-08 05:03 | 24.95360 | 46.71187 | 2049 ft | 16 kts | 150° |
| 2026-05-08 05:03 | 24.95264 | 46.71249 | 2052 ft | 15 kts | 150° |
| 2026-05-08 05:04 | 24.95173 | 46.71305 | 2049 ft | 15 kts | 150° |
| 2026-05-08 05:04 | 24.95088 | 46.71359 | 2053 ft | 14 kts | 150° |
| 2026-05-08 05:04 | 24.95008 | 46.71410 | 2050 ft | 13 kts | 149° |
| 2026-05-08 05:04 | 24.94925 | 46.71464 | 2053 ft | 15 kts | 150° |
| 2026-05-08 05:05 | 24.94831 | 46.71523 | 2051 ft | 16 kts | 150° |
| 2026-05-08 05:05 | 24.94729 | 46.71586 | 2053 ft | 17 kts | 150° |
| 2026-05-08 05:05 | 24.94627 | 46.71650 | 2053 ft | 16 kts | 150° |
| 2026-05-08 05:05 | 24.94531 | 46.71710 | 2052 ft | 15 kts | 150° |
| 2026-05-08 05:06 | 24.94441 | 46.71768 | 2056 ft | 13 kts | 150° |
| 2026-05-08 05:06 | 24.94388 | 46.71803 | 2051 ft | 8 kts | 146° |
| 2026-05-08 05:06 | 24.94369 | 46.71852 | 2049 ft | 6 kts | 86° |
| 2026-05-08 05:06 | 24.94391 | 46.71894 | 2053 ft | 9 kts | 57° |
| 2026-05-08 05:07 | 24.94429 | 46.71963 | 2052 ft | 12 kts | 59° |
| 2026-05-08 05:07 | 24.94478 | 46.72055 | 2045 ft | 16 kts | 59° |
| 2026-05-08 05:07 | 24.94526 | 46.72147 | 2040 ft | 10 kts | 60° |
| 2026-05-08 05:07 | 24.94553 | 46.72172 | 2040 ft | 5 kts | 22° |
| 2026-05-08 05:08 | 24.94570 | 46.72171 | 2040 ft | 1 kts | 344° |
| 2026-05-08 05:08 | 24.94587 | 46.72160 | 2046 ft | 4 kts | 332° |
| 2026-05-08 05:08 | 24.94601 | 46.72152 | 2041 ft | 2 kts | 332° |
| 2026-05-08 05:08 | 24.94665 | 46.72114 | 2041 ft | 28 kts | 330° |
| 2026-05-08 05:09 | 24.95044 | 46.71872 | 2041 ft | 96 kts | 330° |
| 2026-05-08 05:09 | 24.95799 | 46.71395 | 2045 ft | 151 kts | 330° |
| 2026-05-08 05:09 | 24.96846 | 46.70741 | 2075 ft | 191 kts | 331° |
| 2026-05-08 05:09 | 24.98063 | 46.70049 | 2672 ft | 197 kts | 335° |
| 2026-05-08 05:10 | 24.99330 | 46.69491 | 3388 ft | 203 kts | 340° |
| 2026-05-08 05:10 | 25.02206 | 46.68422 | 4231 ft | 243 kts | 340° |
| 2026-05-08 05:10 | 25.03908 | 46.67725 | 4446 ft | 277 kts | 339° |
| 2026-05-08 05:11 | 25.05733 | 46.66980 | 5605 ft | 276 kts | 341° |
| 2026-05-08 05:11 | 25.07525 | 46.66276 | 6822 ft | 277 kts | 342° |
| 2026-05-08 05:11 | 25.09426 | 46.65762 | 7778 ft | 288 kts | 1° |
| 2026-05-08 05:11 | 25.11402 | 46.66156 | 8771 ft | 285 kts | 20° |
| 2026-05-08 05:12 | 25.13298 | 46.66903 | 9797 ft | 294 kts | 21° |
| 2026-05-08 05:12 | 25.15246 | 46.67688 | 10520 ft | 312 kts | 20° |
| 2026-05-08 05:12 | 25.17262 | 46.68808 | 10915 ft | 336 kts | 40° |
| 2026-05-08 05:12 | 25.18866 | 46.70789 | 11296 ft | 359 kts | 60° |
| 2026-05-08 05:13 | 25.19833 | 46.73418 | 11618 ft | 382 kts | 79° |
| 2026-05-08 05:13 | 25.20057 | 46.76421 | 11847 ft | 405 kts | 94° |
| 2026-05-08 05:13 | 25.19719 | 46.79555 | 12595 ft | 411 kts | 100° |
| 2026-05-08 05:13 | 25.19270 | 46.82659 | 13449 ft | 417 kts | 100° |
| 2026-05-08 05:14 | 25.18838 | 46.85845 | 14221 ft | 422 kts | 101° |
| 2026-05-08 05:14 | 25.18111 | 46.88996 | 14999 ft | 425 kts | 113° |
| 2026-05-08 05:14 | 25.16817 | 46.91943 | 15757 ft | 428 kts | 119° |
| 2026-05-08 05:14 | 25.15388 | 46.94849 | 16505 ft | 432 kts | 121° |
| 2026-05-08 05:15 | 25.13882 | 46.97737 | 17219 ft | 436 kts | 122° |
| 2026-05-08 05:15 | 25.12410 | 47.00635 | 17880 ft | 441 kts | 121° |
| 2026-05-08 05:15 | 25.10939 | 47.03628 | 18551 ft | 445 kts | 121° |
| 2026-05-08 05:15 | 25.09440 | 47.06648 | 19140 ft | 451 kts | 121° |
| 2026-05-08 05:16 | 25.07901 | 47.09688 | 19681 ft | 457 kts | 122° |
| 2026-05-08 05:16 | 25.06340 | 47.12767 | 20271 ft | 462 kts | 121° |
| 2026-05-08 05:16 | 25.04774 | 47.15901 | 20802 ft | 468 kts | 121° |
| 2026-05-08 05:16 | 25.03191 | 47.19063 | 21332 ft | 473 kts | 121° |
| 2026-05-08 05:17 | 25.01583 | 47.22256 | 21799 ft | 479 kts | 122° |
| 2026-05-08 05:17 | 24.99972 | 47.25446 | 22296 ft | 484 kts | 122° |
| 2026-05-08 05:17 | 24.98323 | 47.28712 | 22738 ft | 489 kts | 122° |
| 2026-05-08 05:17 | 24.96661 | 47.32010 | 23209 ft | 494 kts | 122° |
| 2026-05-08 05:18 | 24.94987 | 47.35336 | 23649 ft | 498 kts | 122° |
| 2026-05-08 05:18 | 24.93283 | 47.38690 | 24055 ft | 502 kts | 124° |
| 2026-05-08 05:18 | 24.91255 | 47.41756 | 24468 ft | 501 kts | 135° |
| 2026-05-08 05:18 | 24.88788 | 47.44470 | 24912 ft | 501 kts | 140° |
| 2026-05-08 05:19 | 24.86261 | 47.47129 | 25384 ft | 503 kts | 140° |
| 2026-05-08 05:19 | 24.83708 | 47.49797 | 25826 ft | 506 kts | 140° |
| 2026-05-08 05:19 | 24.81150 | 47.52485 | 26266 ft | 509 kts | 140° |
| 2026-05-08 05:19 | 24.78592 | 47.55194 | 26739 ft | 509 kts | 140° |
| 2026-05-08 05:20 | 24.76045 | 47.57879 | 27406 ft | 505 kts | 141° |
| 2026-05-08 05:20 | 24.73536 | 47.60504 | 28026 ft | 503 kts | 141° |
| 2026-05-08 05:20 | 24.71006 | 47.63152 | 28672 ft | 500 kts | 141° |
| 2026-05-08 05:20 | 24.68483 | 47.65807 | 29024 ft | 504 kts | 141° |
| 2026-05-08 05:21 | 24.65947 | 47.68470 | 29017 ft | 502 kts | 141° |
| 2026-05-08 05:21 | 24.60934 | 47.73723 | 29022 ft | 495 kts | 142° |
| 2026-05-08 05:22 | 24.55854 | 47.78738 | 29032 ft | 488 kts | 150° |
| 2026-05-08 05:22 | 24.49892 | 47.82132 | 29040 ft | 480 kts | 161° |
| 2026-05-08 05:23 | 24.43741 | 47.85012 | 29037 ft | 480 kts | 161° |
| 2026-05-08 05:23 | 24.37595 | 47.87898 | 29033 ft | 481 kts | 161° |
| 2026-05-08 05:24 | 24.31473 | 47.90767 | 29036 ft | 482 kts | 161° |
| 2026-05-08 05:24 | 24.25312 | 47.93653 | 29040 ft | 481 kts | 161° |
| 2026-05-08 05:25 | 24.19168 | 47.96523 | 29034 ft | 479 kts | 161° |
| 2026-05-08 05:25 | 24.13034 | 47.99391 | 29030 ft | 480 kts | 161° |
| 2026-05-08 05:26 | 24.06862 | 48.02269 | 29032 ft | 482 kts | 161° |
| 2026-05-08 05:26 | 24.00692 | 48.05144 | 29023 ft | 482 kts | 161° |
| 2026-05-08 05:27 | 23.94535 | 48.08018 | 29027 ft | 480 kts | 161° |
| 2026-05-08 05:27 | 23.88412 | 48.10861 | 29016 ft | 480 kts | 161° |
| 2026-05-08 05:28 | 23.82262 | 48.13725 | 29016 ft | 480 kts | 161° |
| 2026-05-08 05:28 | 23.76100 | 48.16579 | 29019 ft | 481 kts | 161° |
| 2026-05-08 05:29 | 23.69917 | 48.19451 | 29021 ft | 482 kts | 161° |
| 2026-05-08 05:29 | 23.63746 | 48.22309 | 29016 ft | 481 kts | 161° |
| 2026-05-08 05:30 | 23.57585 | 48.25163 | 29013 ft | 480 kts | 161° |
| 2026-05-08 05:30 | 23.51467 | 48.27994 | 29013 ft | 482 kts | 161° |
| 2026-05-08 05:31 | 23.45533 | 48.31461 | 29008 ft | 492 kts | 146° |
| 2026-05-08 05:31 | 23.40856 | 48.36967 | 29014 ft | 503 kts | 126° |
| 2026-05-08 05:31 | 23.39217 | 48.40355 | 29017 ft | 509 kts | 115° |
| 2026-05-08 05:32 | 23.38140 | 48.44045 | 29016 ft | 515 kts | 105° |
| 2026-05-08 05:32 | 23.37494 | 48.51867 | 29009 ft | 521 kts | 95° |
| 2026-05-08 05:33 | 23.37199 | 48.59750 | 29002 ft | 521 kts | 95° |
| 2026-05-08 05:33 | 23.36858 | 48.67611 | 28999 ft | 519 kts | 95° |
| 2026-05-08 05:34 | 23.36536 | 48.75468 | 29000 ft | 519 kts | 95° |
| 2026-05-08 05:34 | 23.36205 | 48.83255 | 28990 ft | 518 kts | 95° |
| 2026-05-08 05:35 | 23.35865 | 48.91100 | 28986 ft | 518 kts | 95° |
| 2026-05-08 05:35 | 23.35528 | 48.98947 | 28987 ft | 518 kts | 95° |
| 2026-05-08 05:36 | 23.35181 | 49.06782 | 28988 ft | 519 kts | 95° |
| 2026-05-08 05:36 | 23.34837 | 49.14583 | 28981 ft | 519 kts | 95° |
| 2026-05-08 05:37 | 23.34484 | 49.22425 | 28980 ft | 519 kts | 95° |
| 2026-05-08 05:37 | 23.34190 | 49.28999 | 28985 ft | 518 kts | 95° |
| 2026-05-08 05:38 | 23.33827 | 49.36824 | 28975 ft | 518 kts | 95° |
| 2026-05-08 05:38 | 23.33468 | 49.44649 | 28975 ft | 518 kts | 95° |
| 2026-05-08 05:39 | 23.33100 | 49.52449 | 28965 ft | 519 kts | 95° |
| 2026-05-08 05:39 | 23.32732 | 49.60318 | 28951 ft | 520 kts | 95° |
| 2026-05-08 05:40 | 23.32355 | 49.68158 | 28928 ft | 519 kts | 95° |
| 2026-05-08 05:40 | 23.31979 | 49.75993 | 28915 ft | 518 kts | 95° |
| 2026-05-08 05:41 | 23.31595 | 49.83820 | 28904 ft | 518 kts | 95° |
| 2026-05-08 05:41 | 23.31211 | 49.91654 | 28904 ft | 518 kts | 95° |
| 2026-05-08 05:42 | 23.30818 | 49.99481 | 28904 ft | 517 kts | 95° |
| 2026-05-08 05:42 | 23.30431 | 50.07300 | 28903 ft | 517 kts | 95° |
| 2026-05-08 05:43 | 23.30032 | 50.15073 | 28903 ft | 518 kts | 95° |
| 2026-05-08 05:43 | 23.29634 | 50.22896 | 28901 ft | 518 kts | 95° |
| 2026-05-08 05:44 | 23.29222 | 50.30735 | 28906 ft | 518 kts | 95° |
| 2026-05-08 05:44 | 23.28821 | 50.38560 | 28907 ft | 518 kts | 95° |
| 2026-05-08 05:45 | 23.28409 | 50.46335 | 28908 ft | 517 kts | 95° |
| 2026-05-08 05:45 | 23.27993 | 50.54128 | 28906 ft | 515 kts | 95° |
| 2026-05-08 05:46 | 23.27576 | 50.61903 | 28903 ft | 514 kts | 95° |
| 2026-05-08 05:46 | 23.27155 | 50.69654 | 28898 ft | 513 kts | 95° |
| 2026-05-08 05:47 | 23.26728 | 50.77414 | 28896 ft | 515 kts | 95° |
| 2026-05-08 05:47 | 23.26301 | 50.85206 | 28899 ft | 514 kts | 95° |
| 2026-05-08 05:48 | 23.25867 | 50.92963 | 28898 ft | 514 kts | 95° |
| 2026-05-08 05:48 | 23.25434 | 51.00681 | 28898 ft | 514 kts | 95° |
| 2026-05-08 05:49 | 23.24993 | 51.08446 | 28894 ft | 514 kts | 95° |
| 2026-05-08 05:49 | 23.24549 | 51.16221 | 28897 ft | 515 kts | 95° |
| 2026-05-08 05:50 | 23.24099 | 51.23953 | 28897 ft | 514 kts | 95° |
| 2026-05-08 05:50 | 23.23643 | 51.31735 | 28897 ft | 514 kts | 95° |
| 2026-05-08 05:51 | 23.23183 | 51.39501 | 28886 ft | 513 kts | 95° |
| 2026-05-08 05:51 | 23.22201 | 51.47143 | 28885 ft | 509 kts | 110° |
| 2026-05-08 05:52 | 23.19556 | 51.54254 | 28880 ft | 507 kts | 115° |
| 2026-05-08 05:52 | 23.16812 | 51.61266 | 28879 ft | 507 kts | 114° |
| 2026-05-08 05:53 | 23.14081 | 51.68329 | 28878 ft | 506 kts | 115° |
| 2026-05-08 05:53 | 23.11333 | 51.75371 | 28878 ft | 506 kts | 115° |
| 2026-05-08 05:54 | 23.08590 | 51.82418 | 28871 ft | 506 kts | 115° |
| 2026-05-08 05:54 | 23.05839 | 51.89459 | 28869 ft | 505 kts | 115° |
| 2026-05-08 05:55 | 23.03090 | 51.96487 | 28869 ft | 505 kts | 115° |
| 2026-05-08 05:55 | 23.00334 | 52.03524 | 28870 ft | 506 kts | 115° |
| 2026-05-08 05:56 | 22.97596 | 52.10506 | 28867 ft | 506 kts | 115° |
| 2026-05-08 05:56 | 22.94835 | 52.17547 | 28869 ft | 506 kts | 115° |
| 2026-05-08 05:57 | 22.92070 | 52.24572 | 28869 ft | 506 kts | 115° |
| 2026-05-08 05:57 | 22.89310 | 52.31583 | 28868 ft | 505 kts | 115° |
| 2026-05-08 05:58 | 22.86546 | 52.38589 | 28867 ft | 504 kts | 115° |
| 2026-05-08 05:58 | 22.83784 | 52.45583 | 28866 ft | 504 kts | 115° |
| 2026-05-08 05:59 | 22.81958 | 52.52926 | 28869 ft | 510 kts | 99° |
| 2026-05-08 05:59 | 22.81056 | 52.60549 | 28870 ft | 509 kts | 98° |
| 2026-05-08 06:00 | 22.80138 | 52.68113 | 28869 ft | 509 kts | 99° |
| 2026-05-08 06:00 | 22.79211 | 52.75732 | 28857 ft | 509 kts | 99° |
| 2026-05-08 06:01 | 22.78288 | 52.83332 | 28859 ft | 509 kts | 99° |
| 2026-05-08 06:01 | 22.77358 | 52.90910 | 28861 ft | 510 kts | 99° |
| 2026-05-08 06:02 | 22.76421 | 52.98544 | 28858 ft | 510 kts | 99° |
| 2026-05-08 06:02 | 22.75481 | 53.06168 | 28857 ft | 508 kts | 99° |
| 2026-05-08 06:03 | 22.74545 | 53.13720 | 28855 ft | 508 kts | 99° |
| 2026-05-08 06:03 | 22.73603 | 53.21304 | 28854 ft | 507 kts | 99° |
| 2026-05-08 06:04 | 22.72659 | 53.28864 | 28852 ft | 508 kts | 99° |
| 2026-05-08 06:04 | 22.71709 | 53.36454 | 28847 ft | 507 kts | 99° |
| 2026-05-08 06:05 | 22.70755 | 53.44029 | 28847 ft | 507 kts | 99° |
| 2026-05-08 06:05 | 22.69804 | 53.51555 | 28848 ft | 508 kts | 99° |
| 2026-05-08 06:06 | 22.68848 | 53.59137 | 28851 ft | 507 kts | 99° |
| 2026-05-08 06:06 | 22.67880 | 53.66699 | 28849 ft | 506 kts | 99° |
| 2026-05-08 06:07 | 22.66922 | 53.74249 | 28848 ft | 505 kts | 99° |
| 2026-05-08 06:07 | 22.65958 | 53.81755 | 28848 ft | 506 kts | 99° |
| 2026-05-08 06:08 | 22.64988 | 53.89306 | 28849 ft | 506 kts | 99° |
| 2026-05-08 06:08 | 22.64015 | 53.96857 | 28849 ft | 506 kts | 99° |
| 2026-05-08 06:09 | 22.63037 | 54.04403 | 28850 ft | 506 kts | 99° |
| 2026-05-08 06:09 | 22.62053 | 54.11950 | 28849 ft | 505 kts | 98° |
| 2026-05-08 06:10 | 22.61080 | 54.19437 | 28848 ft | 504 kts | 99° |
| 2026-05-08 06:10 | 22.60090 | 54.26961 | 28848 ft | 505 kts | 99° |
| 2026-05-08 06:11 | 22.59101 | 54.34490 | 28849 ft | 505 kts | 99° |
| 2026-05-08 06:11 | 22.58106 | 54.42020 | 28850 ft | 506 kts | 99° |
| 2026-05-08 06:12 | 22.57103 | 54.49560 | 28851 ft | 507 kts | 99° |
| 2026-05-08 06:12 | 22.56108 | 54.57063 | 28852 ft | 507 kts | 99° |
| 2026-05-08 06:13 | 22.55096 | 54.64612 | 28851 ft | 506 kts | 99° |
| 2026-05-08 06:13 | 22.54086 | 54.72160 | 28851 ft | 506 kts | 99° |
| 2026-05-08 06:14 | 22.53072 | 54.79689 | 28865 ft | 505 kts | 99° |
| 2026-05-08 06:14 | 22.52054 | 54.87214 | 28872 ft | 505 kts | 99° |
| 2026-05-08 06:15 | 22.51035 | 54.94734 | 28870 ft | 505 kts | 99° |
| 2026-05-08 06:15 | 22.50024 | 55.02194 | 28876 ft | 504 kts | 99° |
| 2026-05-08 06:16 | 22.48997 | 55.09666 | 28876 ft | 502 kts | 99° |
| 2026-05-08 06:16 | 22.47978 | 55.17135 | 28878 ft | 502 kts | 99° |
| 2026-05-08 06:17 | 22.46433 | 55.28329 | 28877 ft | 501 kts | 99° |
| 2026-05-08 06:17 | 22.45709 | 55.35815 | 28895 ft | 502 kts | 88° |
| 2026-05-08 06:18 | 22.46182 | 55.39555 | 28895 ft | 504 kts | 76° |
| 2026-05-08 06:18 | 22.47290 | 55.43153 | 28892 ft | 504 kts | 69° |
| 2026-05-08 06:18 | 22.49924 | 55.50147 | 28889 ft | 505 kts | 68° |
| 2026-05-08 06:19 | 22.52566 | 55.57183 | 28888 ft | 505 kts | 69° |
| 2026-05-08 06:19 | 22.55201 | 55.64225 | 28884 ft | 505 kts | 68° |
| 2026-05-08 06:20 | 22.57840 | 55.71267 | 28876 ft | 504 kts | 68° |
| 2026-05-08 06:20 | 22.60463 | 55.78297 | 28875 ft | 504 kts | 68° |
| 2026-05-08 06:21 | 22.62646 | 55.84148 | 28868 ft | 503 kts | 68° |
| 2026-05-08 06:21 | 22.65273 | 55.91203 | 28866 ft | 503 kts | 68° |
| 2026-05-08 06:22 | 22.67877 | 55.98199 | 28866 ft | 503 kts | 68° |
| 2026-05-08 06:22 | 22.70485 | 56.05226 | 28865 ft | 502 kts | 68° |
| 2026-05-08 06:23 | 22.73090 | 56.12246 | 28864 ft | 502 kts | 68° |
| 2026-05-08 06:23 | 22.75679 | 56.19244 | 28866 ft | 503 kts | 68° |
| 2026-05-08 06:24 | 22.78286 | 56.26297 | 28869 ft | 504 kts | 69° |
| 2026-05-08 06:24 | 22.80899 | 56.33378 | 28867 ft | 505 kts | 68° |
| 2026-05-08 06:25 | 22.83199 | 56.40520 | 28870 ft | 504 kts | 77° |
| 2026-05-08 06:25 | 22.84601 | 56.47987 | 28859 ft | 504 kts | 79° |
| 2026-05-08 06:26 | 22.86015 | 56.55382 | 28858 ft | 504 kts | 78° |
| 2026-05-08 06:26 | 22.87426 | 56.62823 | 28858 ft | 503 kts | 79° |
| 2026-05-08 06:27 | 22.88832 | 56.70265 | 28836 ft | 503 kts | 78° |
| 2026-05-08 06:27 | 22.90238 | 56.77700 | 28823 ft | 503 kts | 79° |
| 2026-05-08 06:28 | 22.91632 | 56.85126 | 28812 ft | 502 kts | 78° |
| 2026-05-08 06:28 | 22.93030 | 56.92543 | 28813 ft | 502 kts | 79° |
| 2026-05-08 06:29 | 22.94417 | 56.99975 | 28813 ft | 503 kts | 79° |
| 2026-05-08 06:29 | 22.95800 | 57.07363 | 28815 ft | 503 kts | 79° |
| 2026-05-08 06:30 | 22.97184 | 57.14817 | 28816 ft | 505 kts | 79° |
| 2026-05-08 06:30 | 22.98573 | 57.22282 | 28816 ft | 504 kts | 78° |
| 2026-05-08 06:31 | 22.99948 | 57.29746 | 28811 ft | 503 kts | 81° |
| 2026-05-08 06:31 | 23.00371 | 57.37327 | 28817 ft | 504 kts | 89° |
| 2026-05-08 06:32 | 23.00572 | 57.44922 | 28815 ft | 503 kts | 88° |
| 2026-05-08 06:32 | 23.00836 | 57.52476 | 28813 ft | 502 kts | 88° |
| 2026-05-08 06:33 | 23.01051 | 57.60056 | 28815 ft | 503 kts | 88° |
| 2026-05-08 06:33 | 23.01289 | 57.67623 | 28816 ft | 503 kts | 88° |
| 2026-05-08 06:34 | 23.01511 | 57.75238 | 28812 ft | 502 kts | 88° |
| 2026-05-08 06:34 | 23.01733 | 57.82761 | 28812 ft | 501 kts | 88° |
| 2026-05-08 06:35 | 23.01780 | 57.90307 | 28811 ft | 501 kts | 90° |
| 2026-05-08 06:35 | 23.01836 | 57.97904 | 28812 ft | 501 kts | 90° |
| 2026-05-08 06:36 | 23.01803 | 58.05463 | 28812 ft | 501 kts | 90° |
| 2026-05-08 06:36 | 23.01819 | 58.13002 | 28812 ft | 502 kts | 90° |
| 2026-05-08 06:37 | 23.01803 | 58.20581 | 28812 ft | 501 kts | 90° |
| 2026-05-08 06:37 | 23.01795 | 58.28164 | 28814 ft | 501 kts | 90° |
| 2026-05-08 06:38 | 23.01782 | 58.35732 | 28812 ft | 501 kts | 90° |
| 2026-05-08 06:38 | 23.01996 | 58.43286 | 28812 ft | 501 kts | 88° |
| 2026-05-08 06:39 | 23.02217 | 58.50802 | 28814 ft | 501 kts | 88° |
| 2026-05-08 06:39 | 23.02491 | 58.58377 | 28815 ft | 501 kts | 88° |
| 2026-05-08 06:40 | 23.02729 | 58.65934 | 28814 ft | 501 kts | 88° |
| 2026-05-08 06:40 | 23.02982 | 58.73517 | 28815 ft | 503 kts | 88° |
| 2026-05-08 06:41 | 23.03221 | 58.81105 | 28816 ft | 503 kts | 88° |
| 2026-05-08 06:41 | 23.03459 | 58.88693 | 28828 ft | 502 kts | 88° |
| 2026-05-08 06:42 | 23.03696 | 58.96228 | 28813 ft | 502 kts | 88° |
| 2026-05-08 06:42 | 23.03927 | 59.03802 | 28809 ft | 502 kts | 88° |
| 2026-05-08 06:43 | 23.04150 | 59.11403 | 28810 ft | 504 kts | 88° |
| 2026-05-08 06:43 | 23.04373 | 59.19006 | 28809 ft | 503 kts | 88° |
| 2026-05-08 06:44 | 23.04587 | 59.26557 | 28808 ft | 503 kts | 88° |
| 2026-05-08 06:44 | 23.04801 | 59.34148 | 28809 ft | 502 kts | 88° |
| 2026-05-08 06:45 | 23.04985 | 59.41739 | 28809 ft | 503 kts | 89° |
| 2026-05-08 06:45 | 23.05067 | 59.49361 | 28815 ft | 504 kts | 88° |
| 2026-05-08 06:46 | 23.05209 | 59.56922 | 28820 ft | 504 kts | 89° |
| 2026-05-08 06:46 | 23.05307 | 59.64549 | 28818 ft | 504 kts | 88° |
| 2026-05-08 06:47 | 23.05426 | 59.72144 | 28818 ft | 503 kts | 89° |
| 2026-05-08 06:47 | 23.05526 | 59.79749 | 28820 ft | 502 kts | 89° |
| 2026-05-08 06:48 | 23.05630 | 59.87302 | 28816 ft | 504 kts | 89° |
| 2026-05-08 06:48 | 23.05727 | 59.94915 | 28821 ft | 504 kts | 89° |
| 2026-05-08 06:49 | 23.05822 | 60.02531 | 28829 ft | 505 kts | 89° |
| 2026-05-08 06:49 | 23.05871 | 60.06396 | 28840 ft | 517 kts | 88° |
| 2026-05-08 06:49 | 23.05918 | 60.10351 | 28858 ft | 529 kts | 88° |
| 2026-05-08 06:50 | 23.05965 | 60.14382 | 28976 ft | 537 kts | 88° |
| 2026-05-08 06:50 | 23.06011 | 60.18435 | 29504 ft | 536 kts | 89° |
| 2026-05-08 06:50 | 23.06056 | 60.22436 | 30041 ft | 536 kts | 88° |
| 2026-05-08 06:50 | 23.06098 | 60.26485 | 30558 ft | 536 kts | 89° |
| 2026-05-08 06:51 | 23.06137 | 60.30523 | 31129 ft | 534 kts | 89° |
| 2026-05-08 06:51 | 23.06182 | 60.34552 | 31736 ft | 532 kts | 89° |
| 2026-05-08 06:51 | 23.06222 | 60.38563 | 32290 ft | 531 kts | 89° |
| 2026-05-08 06:51 | 23.06259 | 60.42573 | 32874 ft | 529 kts | 89° |
| 2026-05-08 06:52 | 23.06297 | 60.46562 | 33423 ft | 528 kts | 89° |
| 2026-05-08 06:52 | 23.06334 | 60.50544 | 33989 ft | 526 kts | 89° |
| 2026-05-08 06:52 | 23.06371 | 60.54507 | 34526 ft | 524 kts | 89° |
| 2026-05-08 06:52 | 23.06410 | 60.58465 | 35006 ft | 524 kts | 89° |
| 2026-05-08 06:53 | 23.06442 | 60.62424 | 35426 ft | 524 kts | 89° |
| 2026-05-08 06:53 | 23.06472 | 60.66383 | 35918 ft | 523 kts | 89° |
| 2026-05-08 06:53 | 23.06503 | 60.70280 | 36357 ft | 523 kts | 89° |
| 2026-05-08 06:53 | 23.06536 | 60.74228 | 36767 ft | 523 kts | 89° |
| 2026-05-08 06:54 | 23.06569 | 60.78179 | 37150 ft | 523 kts | 90° |
| 2026-05-08 06:54 | 23.06598 | 60.82128 | 37562 ft | 522 kts | 90° |
| 2026-05-08 06:54 | 23.06624 | 60.86068 | 37941 ft | 522 kts | 90° |
| 2026-05-08 06:54 | 23.06650 | 60.90007 | 38334 ft | 521 kts | 90° |
| 2026-05-08 06:55 | 23.06676 | 60.93939 | 38680 ft | 521 kts | 90° |
| 2026-05-08 06:55 | 23.06704 | 60.97886 | 38820 ft | 524 kts | 90° |
| 2026-05-08 06:55 | 23.06753 | 61.05779 | 38825 ft | 519 kts | 90° |
| 2026-05-08 06:56 | 23.06794 | 61.13583 | 38829 ft | 514 kts | 90° |
| 2026-05-08 06:56 | 23.06837 | 61.21286 | 38827 ft | 513 kts | 90° |
| 2026-05-08 06:57 | 23.06871 | 61.29054 | 38827 ft | 514 kts | 90° |
| 2026-05-08 06:57 | 23.06904 | 61.36819 | 38829 ft | 515 kts | 90° |
| 2026-05-08 06:58 | 23.06932 | 61.44618 | 38834 ft | 516 kts | 90° |
| 2026-05-08 06:58 | 23.06959 | 61.52385 | 38836 ft | 516 kts | 90° |
| 2026-05-08 06:59 | 23.06974 | 61.60191 | 38834 ft | 515 kts | 90° |
| 2026-05-08 06:59 | 23.07000 | 61.67914 | 38831 ft | 514 kts | 90° |
| 2026-05-08 07:00 | 23.06999 | 61.75682 | 38828 ft | 513 kts | 90° |
| 2026-05-08 07:00 | 23.07011 | 61.83442 | 38825 ft | 512 kts | 90° |
| 2026-05-08 07:01 | 23.07014 | 61.91189 | 38834 ft | 514 kts | 90° |
| 2026-05-08 07:01 | 23.07009 | 61.98921 | 38838 ft | 515 kts | 90° |
| 2026-05-08 07:02 | 23.07009 | 62.06714 | 38840 ft | 517 kts | 90° |
| 2026-05-08 07:02 | 23.06996 | 62.14543 | 38845 ft | 519 kts | 90° |
| 2026-05-08 07:03 | 23.06986 | 62.22388 | 38848 ft | 519 kts | 90° |
| 2026-05-08 07:03 | 23.06969 | 62.30211 | 38847 ft | 518 kts | 90° |
| 2026-05-08 07:04 | 23.06951 | 62.38024 | 38843 ft | 517 kts | 90° |
| 2026-05-08 07:04 | 23.06922 | 62.45836 | 38842 ft | 516 kts | 90° |
| 2026-05-08 07:05 | 23.06900 | 62.53579 | 38840 ft | 516 kts | 90° |
| 2026-05-08 07:05 | 23.06866 | 62.61373 | 38840 ft | 516 kts | 90° |